Latest Coastal Weather Observations for McCluer Island

IDD60701

Issued at 6:21 am CST Monday 24 July 2017 (issued every 10 minutes, with the page automatically refreshed every 10 minutes)

About coastal observations | Map of coastal stations | Coastal observations for NT | Marine services | Other Formats
Station Details ID: 014274 Name: MCCLUER ISLAND Lat: -11.05 Lon: 132.98 Height: 1.4 m
Data from the previous 72 hours. | See also: Recent months at McCluer Island
Date/Time
CST
Temp
°C
Wind Pressure Rain since
9am
mm
Weather Cloud Vis
km
Sea
Height
m
Swell
Dir  Spd
kts
Gust
kts
hPa Trend Height
m
Period
s
Dir
24/06:00am 24.7 ESE 17 21 1012.3 - 0.0 - - - - - - -
24/05:30am 24.8 SE 17 21 1012.2 - 0.0 - - - - - - -
24/05:00am 25.0 ESE 14 18 1012.1 - 0.0 - - - - - - -
24/04:30am 25.0 SE 16 20 1011.9 - 0.0 - - - - - - -
24/04:00am 25.1 SE 14 19 1011.9 - 0.0 - - - - - - -
24/03:30am 25.1 SE 12 17 1011.9 - 0.0 - - - - - - -
24/03:00am 25.2 ESE 15 18 1012.0 - 0.0 - - - - - - -
24/02:30am 25.4 ESE 15 17 1012.2 - 0.0 - - - - - - -
24/02:00am 25.5 ESE 15 17 1012.4 - 0.0 - - - - - - -
24/01:30am 25.4 ESE 12 14 1012.4 - 0.0 - - - - - - -
24/01:00am 25.4 ESE 12 14 1012.7 - 0.0 - - - - - - -
24/12:30am 25.5 ESE 14 16 1012.9 - 0.0 - - - - - - -
24/12:00am 25.6 E 13 15 1013.0 - 0.0 - - - - - - -
 
Date/Time
CST
Temp
°C
Wind Pressure Rain since
9am
mm
Weather Cloud Vis
km
Sea
Height
m
Swell
Dir  Spd
kts
Gust
kts
hPa Trend Height
m
Period
s
Dir
23/11:30pm 25.6 E 14 16 1012.9 - 0.0 - - - - - - -
23/11:00pm 25.8 E 14 16 1013.0 - 0.0 - - - - - - -
23/10:30pm 25.9 E 13 15 1013.0 - 0.0 - - - - - - -
23/10:00pm 25.9 E 13 15 1013.0 - 0.0 - - - - - - -
23/09:30pm 26.0 E 14 16 1013.0 - 0.0 - - - - - - -
23/09:00pm 26.3 E 15 17 1013.0 - 0.0 - - - - - - -
23/08:30pm 26.2 E 15 17 1012.6 - 0.0 - - - - - - -
23/08:00pm 26.3 E 17 19 1012.3 - 0.0 - - - - - - -
23/07:30pm 26.2 E 17 19 1011.9 - 0.0 - - - - - - -
23/07:00pm 26.4 E 17 19 1011.5 - 0.0 - - - - - - -
23/06:30pm 26.3 E 17 19 1011.1 - 0.0 - - - - - - -
23/06:00pm 26.6 ESE 17 19 1011.0 - 0.0 - - - - - - -
23/05:30pm 26.9 ESE 17 19 1010.7 - 0.0 - - - - - - -
23/05:00pm 26.7 ESE 19 22 1010.7 - 0.0 - - - - - - -
23/04:30pm 26.9 ESE 19 23 1010.5 - 0.0 - - - - - - -
23/04:00pm 27.1 ESE 19 21 1010.6 - 0.0 - - - - - - -
23/03:30pm 27.0 ESE 18 20 1010.5 - 0.0 - - - - - - -
23/03:00pm 27.9 ESE 19 22 1010.8 - 0.0 - - - - - - -
23/02:30pm 27.9 ESE 17 21 1011.2 - 0.0 - - - - - - -
23/02:00pm 27.6 ESE 18 23 1011.4 - 0.0 - - - - - - -
23/01:30pm 27.8 ESE 17 22 1011.9 - 0.0 - - - - - - -
23/01:00pm 28.9 SE 17 22 1012.5 - 0.0 - - - - - - -
23/12:30pm 27.7 ESE 16 21 1012.7 - 0.0 - - - - - - -
23/12:00pm 28.8 ESE 16 20 1013.1 - 0.0 - - - - - - -
23/11:30am 28.1 ESE 17 22 1013.5 - 0.0 - - - - - - -
23/11:00am 28.6 SE 16 19 1013.8 - 0.0 - - - - - - -
23/10:30am 28.2 ESE 16 22 1014.2 - 0.0 - - - - - - -
23/10:00am 27.9 ESE 16 19 1014.4 - 0.0 - - - - - - -
23/09:30am 27.5 ESE 14 17 1014.5 - 0.0 - - - - - - -
23/09:00am 27.3 ESE 11 15 1014.6 - 0.0 - - - - - - -
23/08:30am 27.0 ESE 9 13 1014.5 - 0.0 - - - - - - -
23/08:00am 25.8 SE 7 10 1014.2 - 0.0 - - - - - - -
23/07:30am 24.3 SE 7 11 1014.0 - 0.0 - - - - - - -
23/07:00am 23.9 SE 8 10 1013.8 - 0.0 - - - - - - -
23/06:30am 24.0 SE 7 9 1013.6 - 0.0 - - - - - - -
23/06:00am 24.4 SE 7 10 1013.3 - 0.0 - - - - - - -
23/05:30am 24.5 SE 8 10 1013.1 - 0.0 - - - - - - -
23/05:00am 25.1 SE 11 15 1013.2 - 0.0 - - - - - - -
23/04:30am 25.2 SE 12 15 1013.2 - 0.0 - - - - - - -
23/04:00am 25.3 SE 14 17 1013.2 - 0.0 - - - - - - -
23/03:30am 25.4 ESE 16 19 1013.4 - 0.0 - - - - - - -
23/03:00am 25.8 ESE 18 22 1013.6 - 0.0 - - - - - - -
23/02:30am 25.4 ESE 18 21 1013.7 - 0.0 - - - - - - -
23/02:00am 25.7 ESE 17 20 1013.7 - 0.0 - - - - - - -
23/01:30am 25.9 E 16 19 1013.9 - 0.0 - - - - - - -
23/01:00am 25.7 E 14 17 1013.9 - 0.0 - - - - - - -
23/12:30am 25.8 E 14 16 1014.0 - 0.0 - - - - - - -
23/12:00am 25.7 E 13 16 1014.0 - 0.0 - - - - - - -
 
Date/Time
CST
Temp
°C
Wind Pressure Rain since
9am
mm
Weather Cloud Vis
km
Sea
Height
m
Swell
Dir  Spd
kts
Gust
kts
hPa Trend Height
m
Period
s
Dir
22/11:30pm 25.7 E 11 13 1014.3 - 0.0 - - - - - - -
22/11:00pm 25.8 E 12 15 1014.3 - 0.0 - - - - - - -
22/10:30pm 25.9 ENE 14 15 1014.2 - 0.0 - - - - - - -
22/10:00pm 26.0 E 12 14 1014.0 - 0.0 - - - - - - -
22/09:30pm 26.1 ENE 15 16 1013.9 - 0.0 - - - - - - -
22/09:00pm 26.1 ENE 13 15 1013.8 - 0.0 - - - - - - -
22/08:30pm 26.2 ENE 10 13 1013.5 - 0.0 - - - - - - -
22/08:00pm 26.3 E 9 11 1013.3 - 0.0 - - - - - - -
22/07:30pm 26.1 ENE 11 12 1012.8 - 0.0 - - - - - - -
22/07:00pm 26.2 E 11 14 1012.5 - 0.0 - - - - - - -
22/06:30pm 26.2 E 12 14 1012.2 - 0.0 - - - - - - -
22/06:00pm 26.3 E 13 14 1011.9 - 0.0 - - - - - - -
22/05:30pm 26.7 ESE 14 16 1011.6 - 0.0 - - - - - - -
22/05:00pm 26.9 ESE 12 14 1011.2 - 0.0 - - - - - - -
22/04:30pm 26.7 ESE 12 13 1011.2 - 0.0 - - - - - - -
22/04:00pm 26.8 ESE 12 15 1011.3 - 0.0 - - - - - - -
22/03:30pm 27.3 ESE 13 18 1011.4 - 0.0 - - - - - - -
22/03:00pm 27.5 ESE 11 14 1011.7 - 0.0 - - - - - - -
22/02:30pm 27.9 ESE 11 14 1012.0 - 0.0 - - - - - - -
22/02:00pm 28.4 SE 10 12 1012.3 - 0.0 - - - - - - -
22/01:30pm 28.4 SE 11 15 1012.8 - 0.0 - - - - - - -
22/01:00pm 28.1 SE 12 17 1013.2 - 0.0 - - - - - - -
22/12:30pm 28.0 SE 12 17 1013.4 - 0.0 - - - - - - -
22/12:00pm 29.2 SE 13 17 1013.9 - 0.0 - - - - - - -
22/11:30am 28.8 SE 13 18 1014.3 - 0.0 - - - - - - -
22/11:00am 26.9 SE 12 16 1014.7 - 0.0 - - - - - - -
22/10:30am 28.2 SE 12 16 1015.1 - 0.0 - - - - - - -
22/10:00am 26.7 ESE 14 16 1015.2 - 0.0 - - - - - - -
22/09:30am 26.2 ESE 14 17 1015.1 - 0.0 - - - - - - -
22/09:00am 26.7 ESE 12 14 1015.1 - 0.0 - - - - - - -
22/08:30am 26.0 SE 12 15 1014.8 - 0.0 - - - - - - -
22/08:00am 25.1 SE 12 15 1014.5 - 0.0 - - - - - - -
22/07:30am 24.1 SE 10 13 1014.2 - 0.0 - - - - - - -
22/07:00am 23.8 SE 10 14 1013.8 - 0.0 - - - - - - -
22/06:30am 23.8 SE 9 12 1013.4 - 0.0 - - - - - - -
22/06:00am 24.1 SE 10 13 1013.2 - 0.0 - - - - - - -
22/05:30am 24.3 SE 9 11 1013.0 - 0.0 - - - - - - -
22/05:00am 24.4 SE 9 11 1013.1 - 0.0 - - - - - - -
22/04:30am 24.5 SE 10 12 1013.0 - 0.0 - - - - - - -
22/04:00am 24.9 SE 11 16 1013.0 - 0.0 - - - - - - -
22/03:30am 25.2 SE 13 16 1013.0 - 0.0 - - - - - - -
22/03:00am 25.5 ESE 16 19 1013.2 - 0.0 - - - - - - -
22/02:30am 25.6 ESE 17 19 1013.5 - 0.0 - - - - - - -
22/02:00am 25.8 ESE 16 18 1013.8 - 0.0 - - - - - - -
22/01:30am 25.8 E 16 18 1014.1 - 0.0 - - - - - - -
22/01:00am 25.6 E 14 17 1014.1 - 0.0 - - - - - - -
22/12:30am 25.7 E 14 16 1014.3 - 0.0 - - - - - - -
22/12:00am 25.5 E 13 15 1014.5 - 0.0 - - - - - - -
 
Date/Time
CST
Temp
°C
Wind Pressure Rain since
9am
mm
Weather Cloud Vis
km
Sea
Height
m
Swell
Dir  Spd
kts
Gust
kts
hPa Trend Height
m
Period
s
Dir
21/11:30pm 25.3 E 11 14 1014.6 - 0.0 - - - - - - -
21/11:00pm 25.3 E 11 13 1014.6 - 0.0 - - - - - - -
21/10:30pm 25.1 E 10 12 1014.5 - 0.0 - - - - - - -
21/10:00pm 25.7 E 11 12 1014.5 - 0.0 - - - - - - -
21/09:30pm 25.6 E 10 12 1014.4 - 0.0 - - - - - - -
21/09:00pm 25.6 E 11 13 1014.1 - 0.0 - - - - - - -
21/08:30pm 25.5 E 11 12 1013.9 - 0.0 - - - - - - -
21/08:00pm 25.6 E 11 13 1013.5 - 0.0 - - - - - - -
21/07:30pm 25.9 E 10 11 1013.2 - 0.0 - - - - - - -
21/07:00pm 25.9 E 11 13 1013.1 - 0.0 - - - - - - -
21/06:30pm 26.1 E 12 13 1012.9 - 0.0 - - - - - - -
21/06:00pm 26.0 E 12 14 1012.6 - 0.0 - - - - - - -
21/05:30pm 26.2 E 13 15 1012.2 - 0.0 - - - - - - -
21/05:00pm 26.4 ESE 13 15 1012.0 - 0.0 - - - - - - -
21/04:30pm 26.3 ESE 13 15 1011.7 - 0.0 - - - - - - -
21/04:00pm 26.3 ESE 14 16 1011.7 - 0.0 - - - - - - -
21/03:30pm 26.5 ESE 15 17 1011.7 - 0.0 - - - - - - -
21/03:00pm 26.4 ESE 16 19 1011.8 - 0.0 - - - - - - -
21/02:30pm 26.5 ESE 18 21 1012.1 - 0.0 - - - - - - -
21/02:00pm 26.8 ESE 18 21 1012.5 - 0.0 - - - - - - -
21/01:30pm 26.3 ESE 20 23 1013.1 - 0.0 - - - - - - -
21/01:00pm 26.4 ESE 20 24 1013.4 - 0.0 - - - - - - -
21/12:30pm 26.0 ESE 19 23 1013.8 - 0.0 - - - - - - -
21/12:00pm 26.8 ESE 21 26 1014.3 - 0.0 - - - - - - -
21/11:30am 26.4 ESE 19 26 1014.5 - 0.0 - - - - - - -
21/11:00am 26.4 SE 17 23 1014.8 - 0.0 - - - - - - -
21/10:30am 26.3 SE 17 23 1014.9 - 0.0 - - - - - - -
21/10:00am 26.6 SE 14 19 1014.8 - 0.0 - - - - - - -
21/09:30am 26.9 SE 15 20 1014.8 - 0.0 - - - - - - -
21/09:00am 26.0 SE 13 18 1014.5 - 0.0 - - - - - - -
21/08:30am 25.7 SE 12 17 1014.4 - 0.0 - - - - - - -
21/08:00am 24.8 SE 12 16 1013.8 - 0.0 - - - - - - -
21/07:30am 23.6 SE 10 15 1013.6 - 0.0 - - - - - - -
21/07:00am 23.5 SE 11 16 1013.2 - 0.0 - - - - - - -
21/06:30am 24.1 SE 14 17 1012.6 - 0.0 - - - - - - -

Other Formats:

Comma delimited format used in spreadsheet applications
http://www.bom.gov.au/fwo/IDD60701/IDD60701.94135.axf

JavaScript Object Notation format (JSON) in row-major order
http://www.bom.gov.au/fwo/IDD60701/IDD60701.94135.json